sensor_id;sensor_type;location;lat;lon;timestamp;P1;P2;P0
78678;PMS5003;67994;59.334;13.528;2023-04-03T00:00:00;0.6;0.3;
78678;PMS5003;67994;59.334;13.528;2023-04-03T00:01:00;0.6;0.3;
78678;PMS5003;67994;59.334;13.528;2023-04-03T00:02:00;0.6;0.3;
78678;PMS5003;67994;59.334;13.528;2023-04-03T00:03:00;0.6;0.3;
78678;PMS5003;67994;59.334;13.528;2023-04-03T00:04:00;0.3;0.3;
78678;PMS5003;67994;59.334;13.528;2023-04-03T00:05:00;0.3;0.3;
78678;PMS5003;67994;59.334;13.528;2023-04-03T00:06:00;0.3;0.3;
78678;PMS5003;67994;59.334;13.528;2023-04-03T00:07:00;0.3;0.3;
78678;PMS5003;67994;59.334;13.528;2023-04-03T00:08:00;0.3;0.3;
78678;PMS5003;67994;59.334;13.528;2023-04-03T00:09:00;0.4;0.4;
78678;PMS5003;67994;59.334;13.528;2023-04-03T00:10:00;0.4;0.4;
78678;PMS5003;67994;59.334;13.528;2023-04-03T00:11:00;0.4;0.4;
78678;PMS5003;67994;59.334;13.528;2023-04-03T00:12:00;0.4;0.4;
78678;PMS5003;67994;59.334;13.528;2023-04-03T00:13:00;0.4;0.4;
78678;PMS5003;67994;59.334;13.528;2023-04-03T00:14:00;0.3;0.3;
78678;PMS5003;67994;59.334;13.528;2023-04-03T00:15:00;0.3;0.3;
78678;PMS5003;67994;59.334;13.528;2023-04-03T00:16:00;0.3;0.3;
78678;PMS5003;67994;59.334;13.528;2023-04-03T00:17:00;0.3;0.3;
78678;PMS5003;67994;59.334;13.528;2023-04-03T00:18:00;0.3;0.3;
78678;PMS5003;67994;59.334;13.528;2023-04-03T00:19:00;0.0;0.0;
78678;PMS5003;67994;59.334;13.528;2023-04-03T00:20:00;0.0;0.0;
78678;PMS5003;67994;59.334;13.528;2023-04-03T00:21:00;0.0;0.0;
78678;PMS5003;67994;59.334;13.528;2023-04-03T00:22:00;0.0;0.0;
78678;PMS5003;67994;59.334;13.528;2023-04-03T00:23:00;0.0;0.0;
78678;PMS5003;67994;59.334;13.528;2023-04-03T00:24:00;0.0;0.0;
78678;PMS5003;67994;59.334;13.528;2023-04-03T00:25:00;0.0;0.0;
78678;PMS5003;67994;59.334;13.528;2023-04-03T00:26:00;0.0;0.0;
78678;PMS5003;67994;59.334;13.528;2023-04-03T00:27:00;0.0;0.0;
78678;PMS5003;67994;59.334;13.528;2023-04-03T00:28:00;0.0;0.0;
78678;PMS5003;67994;59.334;13.528;2023-04-03T00:29:00;1.6;0.0;
78678;PMS5003;67994;59.334;13.528;2023-04-03T00:30:00;1.6;0.0;
78678;PMS5003;67994;59.334;13.528;2023-04-03T00:31:00;1.6;0.0;
78678;PMS5003;67994;59.334;13.528;2023-04-03T00:32:00;1.6;0.0;
78678;PMS5003;67994;59.334;13.528;2023-04-03T00:33:00;1.6;0.0;
78678;PMS5003;67994;59.334;13.528;2023-04-03T00:34:00;1.0;0.0;
78678;PMS5003;67994;59.334;13.528;2023-04-03T00:35:00;1.0;0.0;
78678;PMS5003;67994;59.334;13.528;2023-04-03T00:36:04;1.0;0.0;
78678;PMS5003;67994;59.334;13.528;2023-04-03T00:37:00;1.0;0.0;
78678;PMS5003;67994;59.334;13.528;2023-04-03T00:38:00;1.0;0.0;
78678;PMS5003;67994;59.334;13.528;2023-04-03T00:39:00;0.0;0.0;
78678;PMS5003;67994;59.334;13.528;2023-04-03T00:40:00;0.0;0.0;
78678;PMS5003;67994;59.334;13.528;2023-04-03T00:41:00;0.0;0.0;
78678;PMS5003;67994;59.334;13.528;2023-04-03T00:42:00;0.0;0.0;
78678;PMS5003;67994;59.334;13.528;2023-04-03T00:43:00;0.0;0.0;
78678;PMS5003;67994;59.334;13.528;2023-04-03T00:44:00;0.3;0.0;
78678;PMS5003;67994;59.334;13.528;2023-04-03T00:46:00;0.3;0.0;
78678;PMS5003;67994;59.334;13.528;2023-04-03T00:47:01;0.3;0.0;
78678;PMS5003;67994;59.334;13.528;2023-04-03T00:48:00;0.3;0.0;
78678;PMS5003;67994;59.334;13.528;2023-04-03T00:49:00;0.0;0.0;
78678;PMS5003;67994;59.334;13.528;2023-04-03T00:50:00;0.0;0.0;
78678;PMS5003;67994;59.334;13.528;2023-04-03T00:51:00;0.0;0.0;
78678;PMS5003;67994;59.334;13.528;2023-04-03T00:52:00;0.0;0.0;
78678;PMS5003;67994;59.334;13.528;2023-04-03T00:53:00;0.0;0.0;
78678;PMS5003;67994;59.334;13.528;2023-04-03T00:54:01;0.0;0.0;
78678;PMS5003;67994;59.334;13.528;2023-04-03T00:55:00;0.0;0.0;
78678;PMS5003;67994;59.334;13.528;2023-04-03T00:56:00;0.0;0.0;
78678;PMS5003;67994;59.334;13.528;2023-04-03T00:57:00;0.0;0.0;
78678;PMS5003;67994;59.334;13.528;2023-04-03T00:58:00;0.0;0.0;
78678;PMS5003;67994;59.334;13.528;2023-04-03T00:59:02;1.0;0.0;
78678;PMS5003;67994;59.334;13.528;2023-04-03T01:00:01;1.0;0.0;
78678;PMS5003;67994;59.334;13.528;2023-04-03T01:01:00;1.0;0.0;
78678;PMS5003;67994;59.334;13.528;2023-04-03T01:02:06;1.0;0.0;
78678;PMS5003;67994;59.334;13.528;2023-04-03T01:03:00;1.0;0.0;
78678;PMS5003;67994;59.334;13.528;2023-04-03T01:04:00;0.0;0.0;
78678;PMS5003;67994;59.334;13.528;2023-04-03T01:05:00;0.0;0.0;
78678;PMS5003;67994;59.334;13.528;2023-04-03T01:06:00;0.0;0.0;
78678;PMS5003;67994;59.334;13.528;2023-04-03T01:07:01;0.0;0.0;
78678;PMS5003;67994;59.334;13.528;2023-04-03T01:08:00;0.0;0.0;
78678;PMS5003;67994;59.334;13.528;2023-04-03T01:09:00;6.4;2.8;
78678;PMS5003;67994;59.334;13.528;2023-04-03T01:10:00;6.4;2.8;
78678;PMS5003;67994;59.334;13.528;2023-04-03T01:11:00;6.4;2.8;
78678;PMS5003;67994;59.334;13.528;2023-04-03T01:13:00;6.4;2.8;
78678;PMS5003;67994;59.334;13.528;2023-04-03T01:14:00;2.4;2.4;
78678;PMS5003;67994;59.334;13.528;2023-04-03T01:15:01;2.4;2.4;
78678;PMS5003;67994;59.334;13.528;2023-04-03T01:16:00;2.4;2.4;
78678;PMS5003;67994;59.334;13.528;2023-04-03T01:17:00;2.4;2.4;
78678;PMS5003;67994;59.334;13.528;2023-04-03T01:18:00;2.4;2.4;
78678;PMS5003;67994;59.334;13.528;2023-04-03T01:19:00;0.3;0.3;
78678;PMS5003;67994;59.334;13.528;2023-04-03T01:20:08;0.3;0.3;
78678;PMS5003;67994;59.334;13.528;2023-04-03T01:21:10;0.3;0.3;
78678;PMS5003;67994;59.334;13.528;2023-04-03T01:22:04;0.3;0.3;
78678;PMS5003;67994;59.334;13.528;2023-04-03T01:23:03;0.3;0.3;
78678;PMS5003;67994;59.334;13.528;2023-04-03T01:24:05;1.6;1.0;
78678;PMS5003;67994;59.334;13.528;2023-04-03T01:25:00;1.6;1.0;
78678;PMS5003;67994;59.334;13.528;2023-04-03T01:26:00;1.6;1.0;
78678;PMS5003;67994;59.334;13.528;2023-04-03T01:27:00;1.6;1.0;
78678;PMS5003;67994;59.334;13.528;2023-04-03T01:28:00;1.6;1.0;
78678;PMS5003;67994;59.334;13.528;2023-04-03T01:29:00;0.0;0.0;
78678;PMS5003;67994;59.334;13.528;2023-04-03T01:30:00;0.0;0.0;
78678;PMS5003;67994;59.334;13.528;2023-04-03T01:31:02;0.0;0.0;
78678;PMS5003;67994;59.334;13.528;2023-04-03T01:32:01;0.0;0.0;
78678;PMS5003;67994;59.334;13.528;2023-04-03T01:33:00;0.0;0.0;
78678;PMS5003;67994;59.334;13.528;2023-04-03T01:34:00;0.0;0.0;
78678;PMS5003;67994;59.334;13.528;2023-04-03T01:35:00;0.0;0.0;
78678;PMS5003;67994;59.334;13.528;2023-04-03T01:36:00;0.0;0.0;
78678;PMS5003;67994;59.334;13.528;2023-04-03T01:37:00;0.0;0.0;
78678;PMS5003;67994;59.334;13.528;2023-04-03T01:38:00;0.0;0.0;
78678;PMS5003;67994;59.334;13.528;2023-04-03T01:39:00;0.0;0.0;
78678;PMS5003;67994;59.334;13.528;2023-04-03T01:40:00;0.0;0.0;
78678;PMS5003;67994;59.334;13.528;2023-04-03T01:41:00;0.0;0.0;
78678;PMS5003;67994;59.334;13.528;2023-04-03T01:42:00;0.0;0.0;
78678;PMS5003;67994;59.334;13.528;2023-04-03T01:43:00;0.0;0.0;
78678;PMS5003;67994;59.334;13.528;2023-04-03T01:44:00;0.0;0.0;
78678;PMS5003;67994;59.334;13.528;2023-04-03T01:45:00;0.0;0.0;
78678;PMS5003;67994;59.334;13.528;2023-04-03T01:46:00;0.0;0.0;
78678;PMS5003;67994;59.334;13.528;2023-04-03T01:47:00;0.0;0.0;
78678;PMS5003;67994;59.334;13.528;2023-04-03T01:48:01;0.0;0.0;
78678;PMS5003;67994;59.334;13.528;2023-04-03T01:49:00;0.0;0.0;
78678;PMS5003;67994;59.334;13.528;2023-04-03T01:50:00;0.0;0.0;
78678;PMS5003;67994;59.334;13.528;2023-04-03T01:51:00;0.0;0.0;
78678;PMS5003;67994;59.334;13.528;2023-04-03T01:52:00;0.0;0.0;
78678;PMS5003;67994;59.334;13.528;2023-04-03T01:53:00;0.0;0.0;
78678;PMS5003;67994;59.334;13.528;2023-04-03T01:54:00;0.0;0.0;
78678;PMS5003;67994;59.334;13.528;2023-04-03T01:55:00;0.0;0.0;
78678;PMS5003;67994;59.334;13.528;2023-04-03T01:56:00;0.0;0.0;
78678;PMS5003;67994;59.334;13.528;2023-04-03T01:57:00;0.0;0.0;
78678;PMS5003;67994;59.334;13.528;2023-04-03T01:58:00;0.0;0.0;
78678;PMS5003;67994;59.334;13.528;2023-04-03T01:59:00;0.0;0.0;
78678;PMS5003;67994;59.334;13.528;2023-04-03T02:00:00;0.0;0.0;
78678;PMS5003;67994;59.334;13.528;2023-04-03T02:01:00;0.0;0.0;
78678;PMS5003;67994;59.334;13.528;2023-04-03T02:02:00;0.0;0.0;
78678;PMS5003;67994;59.334;13.528;2023-04-03T02:03:00;0.0;0.0;
78678;PMS5003;67994;59.334;13.528;2023-04-03T02:04:00;1.0;1.0;
78678;PMS5003;67994;59.334;13.528;2023-04-03T02:05:00;1.0;1.0;
78678;PMS5003;67994;59.334;13.528;2023-04-03T02:06:00;1.0;1.0;
78678;PMS5003;67994;59.334;13.528;2023-04-03T02:07:00;1.0;1.0;
78678;PMS5003;67994;59.334;13.528;2023-04-03T02:08:00;1.0;1.0;
78678;PMS5003;67994;59.334;13.528;2023-04-03T02:09:00;2.4;1.0;
78678;PMS5003;67994;59.334;13.528;2023-04-03T02:10:00;2.4;1.0;
78678;PMS5003;67994;59.334;13.528;2023-04-03T02:11:00;2.4;1.0;
78678;PMS5003;67994;59.334;13.528;2023-04-03T02:12:00;2.4;1.0;
78678;PMS5003;67994;59.334;13.528;2023-04-03T02:13:00;2.4;1.0;
78678;PMS5003;67994;59.334;13.528;2023-04-03T02:14:00;1.0;0.0;
78678;PMS5003;67994;59.334;13.528;2023-04-03T02:15:00;1.0;0.0;
78678;PMS5003;67994;59.334;13.528;2023-04-03T02:16:05;1.0;0.0;
78678;PMS5003;67994;59.334;13.528;2023-04-03T02:17:00;1.0;0.0;
78678;PMS5003;67994;59.334;13.528;2023-04-03T02:18:00;1.0;0.0;
78678;PMS5003;67994;59.334;13.528;2023-04-03T02:19:00;1.0;1.0;
78678;PMS5003;67994;59.334;13.528;2023-04-03T02:20:00;1.0;1.0;
78678;PMS5003;67994;59.334;13.528;2023-04-03T02:21:00;1.0;1.0;
78678;PMS5003;67994;59.334;13.528;2023-04-03T02:22:00;1.0;1.0;
78678;PMS5003;67994;59.334;13.528;2023-04-03T02:23:00;1.0;1.0;
78678;PMS5003;67994;59.334;13.528;2023-04-03T02:24:00;0.0;0.0;
78678;PMS5003;67994;59.334;13.528;2023-04-03T02:25:00;0.0;0.0;
78678;PMS5003;67994;59.334;13.528;2023-04-03T02:26:04;0.0;0.0;
78678;PMS5003;67994;59.334;13.528;2023-04-03T02:27:00;0.0;0.0;
78678;PMS5003;67994;59.334;13.528;2023-04-03T02:28:00;0.0;0.0;
78678;PMS5003;67994;59.334;13.528;2023-04-03T02:29:00;1.0;0.4;
78678;PMS5003;67994;59.334;13.528;2023-04-03T02:30:00;1.0;0.4;
78678;PMS5003;67994;59.334;13.528;2023-04-03T02:31:00;1.0;0.4;
78678;PMS5003;67994;59.334;13.528;2023-04-03T02:32:00;1.0;0.4;
78678;PMS5003;67994;59.334;13.528;2023-04-03T02:33:00;1.0;0.4;
78678;PMS5003;67994;59.334;13.528;2023-04-03T02:34:00;0.0;0.0;
78678;PMS5003;67994;59.334;13.528;2023-04-03T02:35:00;0.0;0.0;
78678;PMS5003;67994;59.334;13.528;2023-04-03T02:36:00;0.0;0.0;
78678;PMS5003;67994;59.334;13.528;2023-04-03T02:37:00;0.0;0.0;
78678;PMS5003;67994;59.334;13.528;2023-04-03T02:38:00;0.0;0.0;
78678;PMS5003;67994;59.334;13.528;2023-04-03T02:39:00;1.0;1.0;
78678;PMS5003;67994;59.334;13.528;2023-04-03T02:40:00;1.0;1.0;
78678;PMS5003;67994;59.334;13.528;2023-04-03T02:41:00;1.0;1.0;
78678;PMS5003;67994;59.334;13.528;2023-04-03T02:42:00;1.0;1.0;
78678;PMS5003;67994;59.334;13.528;2023-04-03T02:43:00;1.0;1.0;
78678;PMS5003;67994;59.334;13.528;2023-04-03T02:44:00;0.0;0.0;
78678;PMS5003;67994;59.334;13.528;2023-04-03T02:45:00;0.0;0.0;
78678;PMS5003;67994;59.334;13.528;2023-04-03T02:46:00;0.0;0.0;
78678;PMS5003;67994;59.334;13.528;2023-04-03T02:47:00;0.0;0.0;
78678;PMS5003;67994;59.334;13.528;2023-04-03T02:48:00;0.0;0.0;
78678;PMS5003;67994;59.334;13.528;2023-04-03T02:49:00;1.0;1.0;
78678;PMS5003;67994;59.334;13.528;2023-04-03T02:50:00;1.0;1.0;
78678;PMS5003;67994;59.334;13.528;2023-04-03T02:51:00;1.0;1.0;
78678;PMS5003;67994;59.334;13.528;2023-04-03T02:52:00;1.0;1.0;
78678;PMS5003;67994;59.334;13.528;2023-04-03T02:53:00;1.0;1.0;
78678;PMS5003;67994;59.334;13.528;2023-04-03T02:54:00;1.0;0.0;
78678;PMS5003;67994;59.334;13.528;2023-04-03T02:55:00;1.0;0.0;
78678;PMS5003;67994;59.334;13.528;2023-04-03T02:56:00;1.0;0.0;
78678;PMS5003;67994;59.334;13.528;2023-04-03T02:57:00;1.0;0.0;
78678;PMS5003;67994;59.334;13.528;2023-04-03T02:58:00;1.0;0.0;
78678;PMS5003;67994;59.334;13.528;2023-04-03T02:59:00;0.0;0.0;
78678;PMS5003;67994;59.334;13.528;2023-04-03T03:00:00;0.0;0.0;
78678;PMS5003;67994;59.334;13.528;2023-04-03T03:01:00;0.0;0.0;
78678;PMS5003;67994;59.334;13.528;2023-04-03T03:02:00;0.0;0.0;
78678;PMS5003;67994;59.334;13.528;2023-04-03T03:03:00;0.0;0.0;
78678;PMS5003;67994;59.334;13.528;2023-04-03T03:04:00;3.0;0.0;
78678;PMS5003;67994;59.334;13.528;2023-04-03T03:05:00;3.0;0.0;
78678;PMS5003;67994;59.334;13.528;2023-04-03T03:06:00;3.0;0.0;
78678;PMS5003;67994;59.334;13.528;2023-04-03T03:07:00;3.0;0.0;
78678;PMS5003;67994;59.334;13.528;2023-04-03T03:08:00;3.0;0.0;
78678;PMS5003;67994;59.334;13.528;2023-04-03T03:09:00;3.0;1.0;
78678;PMS5003;67994;59.334;13.528;2023-04-03T03:10:00;3.0;1.0;
78678;PMS5003;67994;59.334;13.528;2023-04-03T03:11:00;3.0;1.0;
78678;PMS5003;67994;59.334;13.528;2023-04-03T03:12:00;3.0;1.0;
78678;PMS5003;67994;59.334;13.528;2023-04-03T03:13:00;3.0;1.0;
78678;PMS5003;67994;59.334;13.528;2023-04-03T03:14:00;0.6;0.3;
78678;PMS5003;67994;59.334;13.528;2023-04-03T03:15:00;0.6;0.3;
78678;PMS5003;67994;59.334;13.528;2023-04-03T03:16:00;0.6;0.3;
78678;PMS5003;67994;59.334;13.528;2023-04-03T03:17:00;0.6;0.3;
78678;PMS5003;67994;59.334;13.528;2023-04-03T03:18:00;0.6;0.3;
78678;PMS5003;67994;59.334;13.528;2023-04-03T03:19:00;1.0;1.0;
78678;PMS5003;67994;59.334;13.528;2023-04-03T03:20:00;1.0;1.0;
78678;PMS5003;67994;59.334;13.528;2023-04-03T03:21:00;1.0;1.0;
78678;PMS5003;67994;59.334;13.528;2023-04-03T03:22:00;1.0;1.0;
78678;PMS5003;67994;59.334;13.528;2023-04-03T03:23:00;1.0;1.0;
78678;PMS5003;67994;59.334;13.528;2023-04-03T03:24:00;1.0;1.0;
78678;PMS5003;67994;59.334;13.528;2023-04-03T03:25:00;1.0;1.0;
78678;PMS5003;67994;59.334;13.528;2023-04-03T03:26:01;1.0;1.0;
78678;PMS5003;67994;59.334;13.528;2023-04-03T03:27:00;1.0;1.0;
78678;PMS5003;67994;59.334;13.528;2023-04-03T03:28:00;1.0;1.0;
78678;PMS5003;67994;59.334;13.528;2023-04-03T03:29:00;0.3;0.0;
78678;PMS5003;67994;59.334;13.528;2023-04-03T03:30:00;0.3;0.0;
78678;PMS5003;67994;59.334;13.528;2023-04-03T03:31:00;0.3;0.0;
78678;PMS5003;67994;59.334;13.528;2023-04-03T03:32:00;0.3;0.0;
78678;PMS5003;67994;59.334;13.528;2023-04-03T03:33:00;0.3;0.0;
78678;PMS5003;67994;59.334;13.528;2023-04-03T03:34:00;0.0;0.0;
78678;PMS5003;67994;59.334;13.528;2023-04-03T03:35:00;0.0;0.0;
78678;PMS5003;67994;59.334;13.528;2023-04-03T03:36:00;0.0;0.0;
78678;PMS5003;67994;59.334;13.528;2023-04-03T03:37:00;0.0;0.0;
78678;PMS5003;67994;59.334;13.528;2023-04-03T03:38:00;0.0;0.0;
78678;PMS5003;67994;59.334;13.528;2023-04-03T03:39:00;0.6;0.6;
78678;PMS5003;67994;59.334;13.528;2023-04-03T03:40:00;0.6;0.6;
78678;PMS5003;67994;59.334;13.528;2023-04-03T03:41:00;0.6;0.6;
78678;PMS5003;67994;59.334;13.528;2023-04-03T03:42:00;0.6;0.6;
78678;PMS5003;67994;59.334;13.528;2023-04-03T03:43:00;0.6;0.6;
78678;PMS5003;67994;59.334;13.528;2023-04-03T03:44:00;0.0;0.0;
78678;PMS5003;67994;59.334;13.528;2023-04-03T03:45:00;0.0;0.0;
78678;PMS5003;67994;59.334;13.528;2023-04-03T03:46:00;0.0;0.0;
78678;PMS5003;67994;59.334;13.528;2023-04-03T03:47:00;0.0;0.0;
78678;PMS5003;67994;59.334;13.528;2023-04-03T03:48:00;0.0;0.0;
78678;PMS5003;67994;59.334;13.528;2023-04-03T03:49:00;0.0;0.0;
78678;PMS5003;67994;59.334;13.528;2023-04-03T03:50:00;0.0;0.0;
78678;PMS5003;67994;59.334;13.528;2023-04-03T03:51:00;0.0;0.0;
78678;PMS5003;67994;59.334;13.528;2023-04-03T03:52:00;0.0;0.0;
78678;PMS5003;67994;59.334;13.528;2023-04-03T03:53:00;0.0;0.0;
78678;PMS5003;67994;59.334;13.528;2023-04-03T03:54:00;1.0;1.0;
78678;PMS5003;67994;59.334;13.528;2023-04-03T03:55:00;1.0;1.0;
78678;PMS5003;67994;59.334;13.528;2023-04-03T03:56:00;1.0;1.0;
78678;PMS5003;67994;59.334;13.528;2023-04-03T03:57:00;1.0;1.0;
78678;PMS5003;67994;59.334;13.528;2023-04-03T03:58:00;1.0;1.0;
78678;PMS5003;67994;59.334;13.528;2023-04-03T03:59:00;1.2;0.0;
78678;PMS5003;67994;59.334;13.528;2023-04-03T04:00:00;1.2;0.0;
78678;PMS5003;67994;59.334;13.528;2023-04-03T04:01:00;1.2;0.0;
78678;PMS5003;67994;59.334;13.528;2023-04-03T04:02:00;1.2;0.0;
78678;PMS5003;67994;59.334;13.528;2023-04-03T04:03:00;1.2;0.0;
78678;PMS5003;67994;59.334;13.528;2023-04-03T04:04:00;0.7;0.7;
78678;PMS5003;67994;59.334;13.528;2023-04-03T04:05:00;0.7;0.7;
78678;PMS5003;67994;59.334;13.528;2023-04-03T04:06:00;0.7;0.7;
78678;PMS5003;67994;59.334;13.528;2023-04-03T04:07:00;0.7;0.7;
78678;PMS5003;67994;59.334;13.528;2023-04-03T04:08:00;0.7;0.7;
78678;PMS5003;67994;59.334;13.528;2023-04-03T04:09:01;0.0;0.0;
78678;PMS5003;67994;59.334;13.528;2023-04-03T04:10:00;0.0;0.0;
78678;PMS5003;67994;59.334;13.528;2023-04-03T04:11:00;0.0;0.0;
78678;PMS5003;67994;59.334;13.528;2023-04-03T04:12:00;0.0;0.0;
78678;PMS5003;67994;59.334;13.528;2023-04-03T04:13:00;0.0;0.0;
78678;PMS5003;67994;59.334;13.528;2023-04-03T04:14:00;0.0;0.0;
78678;PMS5003;67994;59.334;13.528;2023-04-03T04:15:00;0.0;0.0;
78678;PMS5003;67994;59.334;13.528;2023-04-03T04:16:00;0.0;0.0;
78678;PMS5003;67994;59.334;13.528;2023-04-03T04:17:00;0.0;0.0;
78678;PMS5003;67994;59.334;13.528;2023-04-03T04:18:00;0.0;0.0;
78678;PMS5003;67994;59.334;13.528;2023-04-03T04:19:00;1.0;1.0;
78678;PMS5003;67994;59.334;13.528;2023-04-03T04:20:00;1.0;1.0;
78678;PMS5003;67994;59.334;13.528;2023-04-03T04:21:00;1.0;1.0;
78678;PMS5003;67994;59.334;13.528;2023-04-03T04:22:00;1.0;1.0;
78678;PMS5003;67994;59.334;13.528;2023-04-03T04:23:00;1.0;1.0;
78678;PMS5003;67994;59.334;13.528;2023-04-03T04:24:00;3.7;0.4;
78678;PMS5003;67994;59.334;13.528;2023-04-03T04:25:00;3.7;0.4;
78678;PMS5003;67994;59.334;13.528;2023-04-03T04:26:00;3.7;0.4;
78678;PMS5003;67994;59.334;13.528;2023-04-03T04:27:00;3.7;0.4;
78678;PMS5003;67994;59.334;13.528;2023-04-03T04:28:00;3.7;0.4;
78678;PMS5003;67994;59.334;13.528;2023-04-03T04:29:00;2.7;0.0;
78678;PMS5003;67994;59.334;13.528;2023-04-03T04:30:00;2.7;0.0;
78678;PMS5003;67994;59.334;13.528;2023-04-03T04:31:00;2.7;0.0;
78678;PMS5003;67994;59.334;13.528;2023-04-03T04:32:00;2.7;0.0;
78678;PMS5003;67994;59.334;13.528;2023-04-03T04:33:00;2.7;0.0;
78678;PMS5003;67994;59.334;13.528;2023-04-03T04:34:00;3.4;0.7;
78678;PMS5003;67994;59.334;13.528;2023-04-03T04:35:00;3.4;0.7;
78678;PMS5003;67994;59.334;13.528;2023-04-03T04:36:00;3.4;0.7;
78678;PMS5003;67994;59.334;13.528;2023-04-03T04:37:00;3.4;0.7;
78678;PMS5003;67994;59.334;13.528;2023-04-03T04:38:00;3.4;0.7;
78678;PMS5003;67994;59.334;13.528;2023-04-03T04:39:00;3.0;1.0;
78678;PMS5003;67994;59.334;13.528;2023-04-03T04:40:00;3.0;1.0;
78678;PMS5003;67994;59.334;13.528;2023-04-03T04:41:00;3.0;1.0;
78678;PMS5003;67994;59.334;13.528;2023-04-03T04:42:00;3.0;1.0;
78678;PMS5003;67994;59.334;13.528;2023-04-03T04:43:00;3.0;1.0;
78678;PMS5003;67994;59.334;13.528;2023-04-03T04:44:00;3.0;1.0;
78678;PMS5003;67994;59.334;13.528;2023-04-03T04:45:00;3.0;1.0;
78678;PMS5003;67994;59.334;13.528;2023-04-03T04:46:00;3.0;1.0;
78678;PMS5003;67994;59.334;13.528;2023-04-03T04:47:00;3.0;1.0;
78678;PMS5003;67994;59.334;13.528;2023-04-03T04:48:00;3.0;1.0;
78678;PMS5003;67994;59.334;13.528;2023-04-03T04:49:00;1.0;1.0;
78678;PMS5003;67994;59.334;13.528;2023-04-03T04:50:00;1.0;1.0;
78678;PMS5003;67994;59.334;13.528;2023-04-03T04:51:00;1.0;1.0;
78678;PMS5003;67994;59.334;13.528;2023-04-03T04:52:00;1.0;1.0;
78678;PMS5003;67994;59.334;13.528;2023-04-03T04:53:00;1.0;1.0;
78678;PMS5003;67994;59.334;13.528;2023-04-03T04:54:00;1.8;0.9;
78678;PMS5003;67994;59.334;13.528;2023-04-03T04:55:00;1.8;0.9;
78678;PMS5003;67994;59.334;13.528;2023-04-03T04:56:00;1.8;0.9;
78678;PMS5003;67994;59.334;13.528;2023-04-03T04:57:00;1.8;0.9;
78678;PMS5003;67994;59.334;13.528;2023-04-03T04:58:00;1.8;0.9;
78678;PMS5003;67994;59.334;13.528;2023-04-03T04:59:00;1.0;0.4;
78678;PMS5003;67994;59.334;13.528;2023-04-03T05:00:00;1.0;0.4;
78678;PMS5003;67994;59.334;13.528;2023-04-03T05:01:00;1.0;0.4;
78678;PMS5003;67994;59.334;13.528;2023-04-03T05:02:00;1.0;0.4;
78678;PMS5003;67994;59.334;13.528;2023-04-03T05:03:00;1.0;0.4;
78678;PMS5003;67994;59.334;13.528;2023-04-03T05:04:00;4.8;4.8;
78678;PMS5003;67994;59.334;13.528;2023-04-03T05:05:00;4.8;4.8;
78678;PMS5003;67994;59.334;13.528;2023-04-03T05:06:00;4.8;4.8;
78678;PMS5003;67994;59.334;13.528;2023-04-03T05:07:00;4.8;4.8;
78678;PMS5003;67994;59.334;13.528;2023-04-03T05:08:00;4.8;4.8;
78678;PMS5003;67994;59.334;13.528;2023-04-03T05:09:00;1.2;1.0;
78678;PMS5003;67994;59.334;13.528;2023-04-03T05:10:00;1.2;1.0;
78678;PMS5003;67994;59.334;13.528;2023-04-03T05:11:00;1.2;1.0;
78678;PMS5003;67994;59.334;13.528;2023-04-03T05:12:00;1.2;1.0;
78678;PMS5003;67994;59.334;13.528;2023-04-03T05:13:00;1.2;1.0;
78678;PMS5003;67994;59.334;13.528;2023-04-03T05:14:00;3.1;1.9;
78678;PMS5003;67994;59.334;13.528;2023-04-03T05:15:00;3.1;1.9;
78678;PMS5003;67994;59.334;13.528;2023-04-03T05:16:00;3.1;1.9;
78678;PMS5003;67994;59.334;13.528;2023-04-03T05:17:00;3.1;1.9;
78678;PMS5003;67994;59.334;13.528;2023-04-03T05:18:00;3.1;1.9;
78678;PMS5003;67994;59.334;13.528;2023-04-03T05:19:00;6.1;2.8;
78678;PMS5003;67994;59.334;13.528;2023-04-03T05:20:00;6.1;2.8;
78678;PMS5003;67994;59.334;13.528;2023-04-03T05:21:00;6.1;2.8;
78678;PMS5003;67994;59.334;13.528;2023-04-03T05:22:00;6.1;2.8;
78678;PMS5003;67994;59.334;13.528;2023-04-03T05:23:00;6.1;2.8;
78678;PMS5003;67994;59.334;13.528;2023-04-03T05:24:00;3.0;3.0;
78678;PMS5003;67994;59.334;13.528;2023-04-03T05:25:00;3.0;3.0;
78678;PMS5003;67994;59.334;13.528;2023-04-03T05:26:00;3.0;3.0;
78678;PMS5003;67994;59.334;13.528;2023-04-03T05:27:00;3.0;3.0;
78678;PMS5003;67994;59.334;13.528;2023-04-03T05:28:00;3.0;3.0;
78678;PMS5003;67994;59.334;13.528;2023-04-03T05:29:00;4.0;4.0;
78678;PMS5003;67994;59.334;13.528;2023-04-03T05:30:00;4.0;4.0;
78678;PMS5003;67994;59.334;13.528;2023-04-03T05:31:00;4.0;4.0;
78678;PMS5003;67994;59.334;13.528;2023-04-03T05:32:00;4.0;4.0;
78678;PMS5003;67994;59.334;13.528;2023-04-03T05:33:00;4.0;4.0;
78678;PMS5003;67994;59.334;13.528;2023-04-03T05:34:00;7.8;6.1;
78678;PMS5003;67994;59.334;13.528;2023-04-03T05:35:00;7.8;6.1;
78678;PMS5003;67994;59.334;13.528;2023-04-03T05:36:02;7.8;6.1;
78678;PMS5003;67994;59.334;13.528;2023-04-03T05:37:00;7.8;6.1;
78678;PMS5003;67994;59.334;13.528;2023-04-03T05:38:00;7.8;6.1;
78678;PMS5003;67994;59.334;13.528;2023-04-03T05:39:00;7.3;3.9;
78678;PMS5003;67994;59.334;13.528;2023-04-03T05:40:00;7.3;3.9;
78678;PMS5003;67994;59.334;13.528;2023-04-03T05:41:00;7.3;3.9;
78678;PMS5003;67994;59.334;13.528;2023-04-03T05:42:00;7.3;3.9;
78678;PMS5003;67994;59.334;13.528;2023-04-03T05:43:00;7.3;3.9;
78678;PMS5003;67994;59.334;13.528;2023-04-03T05:44:00;14.1;11.4;
78678;PMS5003;67994;59.334;13.528;2023-04-03T05:45:00;14.1;11.4;
78678;PMS5003;67994;59.334;13.528;2023-04-03T05:46:00;14.1;11.4;
78678;PMS5003;67994;59.334;13.528;2023-04-03T05:47:00;14.1;11.4;
78678;PMS5003;67994;59.334;13.528;2023-04-03T05:48:00;14.1;11.4;
78678;PMS5003;67994;59.334;13.528;2023-04-03T05:49:00;13.9;9.9;
78678;PMS5003;67994;59.334;13.528;2023-04-03T05:50:00;13.9;9.9;
78678;PMS5003;67994;59.334;13.528;2023-04-03T05:51:00;13.9;9.9;
78678;PMS5003;67994;59.334;13.528;2023-04-03T05:52:00;13.9;9.9;
78678;PMS5003;67994;59.334;13.528;2023-04-03T05:53:00;13.9;9.9;
78678;PMS5003;67994;59.334;13.528;2023-04-03T05:54:00;7.5;6.7;
78678;PMS5003;67994;59.334;13.528;2023-04-03T05:55:00;7.5;6.7;
78678;PMS5003;67994;59.334;13.528;2023-04-03T05:56:00;7.5;6.7;
78678;PMS5003;67994;59.334;13.528;2023-04-03T05:57:00;7.5;6.7;
78678;PMS5003;67994;59.334;13.528;2023-04-03T05:58:00;7.5;6.7;
78678;PMS5003;67994;59.334;13.528;2023-04-03T05:59:00;4.8;4.8;
78678;PMS5003;67994;59.334;13.528;2023-04-03T06:00:00;4.8;4.8;
78678;PMS5003;67994;59.334;13.528;2023-04-03T06:01:00;4.8;4.8;
78678;PMS5003;67994;59.334;13.528;2023-04-03T06:02:00;4.8;4.8;
78678;PMS5003;67994;59.334;13.528;2023-04-03T06:03:00;4.8;4.8;
78678;PMS5003;67994;59.334;13.528;2023-04-03T06:04:00;6.9;3.9;
78678;PMS5003;67994;59.334;13.528;2023-04-03T06:05:00;6.9;3.9;
78678;PMS5003;67994;59.334;13.528;2023-04-03T06:06:02;6.9;3.9;
78678;PMS5003;67994;59.334;13.528;2023-04-03T06:07:00;6.9;3.9;
78678;PMS5003;67994;59.334;13.528;2023-04-03T06:08:00;6.9;3.9;
78678;PMS5003;67994;59.334;13.528;2023-04-03T06:09:00;5.4;4.2;
78678;PMS5003;67994;59.334;13.528;2023-04-03T06:10:00;5.4;4.2;
78678;PMS5003;67994;59.334;13.528;2023-04-03T06:11:00;5.4;4.2;
78678;PMS5003;67994;59.334;13.528;2023-04-03T06:12:00;5.4;4.2;
78678;PMS5003;67994;59.334;13.528;2023-04-03T06:13:00;5.4;4.2;
78678;PMS5003;67994;59.334;13.528;2023-04-03T06:14:00;2.4;2.4;
78678;PMS5003;67994;59.334;13.528;2023-04-03T06:15:00;2.4;2.4;
78678;PMS5003;67994;59.334;13.528;2023-04-03T06:16:00;2.4;2.4;
78678;PMS5003;67994;59.334;13.528;2023-04-03T06:17:00;2.4;2.4;
78678;PMS5003;67994;59.334;13.528;2023-04-03T06:18:00;2.4;2.4;
78678;PMS5003;67994;59.334;13.528;2023-04-03T06:19:00;8.5;8.4;
78678;PMS5003;67994;59.334;13.528;2023-04-03T06:20:00;8.5;8.4;